Time;durP1;ratioP1;P1;durP2;ratioP2;P2;SDS_P1;SDS_P2;PMS_P1;PMS_P2;Temp;Humidity;BMP_temperature;BMP_pressure;BME280_temperature;BME280_humidity;BME280_pressure;Samples;Min_cycle;Max_cycle;Signal;HPM_P1;HPM_P2
2024/03/19 00:01:27;;;;;;;0.40;0.30;;;;;;;1.69;100.00;99706.23;105930;1258;72652;-56
2024/03/19 00:03:54;;;;;;;0.40;0.30;;;;;;;1.69;100.00;99714.72;105890;1260;61338;-57
2024/03/19 00:06:21;;;;;;;0.20;0.20;;;;;;;1.71;100.00;99707.59;105922;1260;60649;-55
2024/03/19 00:08:48;;;;;;;0.80;0.40;;;;;;;1.73;100.00;99699.61;105945;1257;72704;-57
2024/03/19 00:11:15;;;;;;;0.50;0.40;;;;;;;1.76;100.00;99698.00;105914;1259;69197;-55
2024/03/19 00:13:43;;;;;;;0.40;0.40;;;;;;;1.79;100.00;99702.18;106030;1259;71625;-57
2024/03/19 00:16:10;;;;;;;0.40;0.40;;;;;;;1.80;100.00;99698.27;105935;1256;61853;-54
2024/03/19 00:18:37;;;;;;;0.30;0.30;;;;;;;1.81;100.00;99691.53;105973;1260;60594;-56
2024/03/19 00:21:05;;;;;;;0.40;0.30;;;;;;;1.82;100.00;99687.45;106721;1259;76413;-57
2024/03/19 00:23:32;;;;;;;0.40;0.40;;;;;;;1.84;100.00;99688.14;105950;1259;66783;-56
2024/03/19 00:26:00;;;;;;;0.40;0.40;;;;;;;1.86;100.00;99685.11;106035;1257;71590;-56
2024/03/19 00:28:27;;;;;;;0.50;0.50;;;;;;;1.86;100.00;99686.70;106119;1259;60445;-56
2024/03/19 00:30:57;;;;;;;0.50;0.40;;;;;;;1.85;100.00;99693.09;105962;1255;65354;-56
2024/03/19 00:33:24;;;;;;;0.50;0.30;;;;;;;1.82;100.00;99687.45;105944;1254;72441;-55
2024/03/19 00:35:51;;;;;;;0.50;0.40;;;;;;;1.80;100.00;99686.06;105918;1257;66126;-56
2024/03/19 00:38:19;;;;;;;0.30;0.30;;;;;;;1.79;100.00;99683.59;105973;1260;72741;-56
2024/03/19 00:40:46;;;;;;;0.30;0.30;;;;;;;1.78;100.00;99676.02;105783;1261;60468;-56
2024/03/19 00:43:13;;;;;;;0.60;0.40;;;;;;;1.80;100.00;99679.52;105690;1258;60573;-57
2024/03/19 00:45:40;;;;;;;1.60;0.60;;;;;;;1.80;100.00;99667.84;105884;1260;72867;-56
2024/03/19 00:48:08;;;;;;;0.80;0.60;;;;;;;1.81;100.00;99663.92;105933;1259;66046;-56
2024/03/19 00:50:35;;;;;;;0.70;0.60;;;;;;;1.83;100.00;99663.74;106011;1258;72452;-56
2024/03/19 00:53:03;;;;;;;0.70;0.60;;;;;;;1.84;100.00;99658.77;106040;1262;60306;-56
2024/03/19 00:55:30;;;;;;;2.40;0.60;;;;;;;1.87;100.00;99655.55;105895;1270;60303;-56
2024/03/19 00:57:57;;;;;;;0.70;0.50;;;;;;;1.89;100.00;99654.96;105825;1270;72544;-58
2024/03/19 01:00:24;;;;;;;0.60;0.50;;;;;;;1.92;100.00;99654.95;105891;1259;67591;-57
2024/03/19 01:02:51;;;;;;;0.60;0.50;;;;;;;1.92;100.00;99657.95;105791;1261;71742;-55
2024/03/19 01:05:19;;;;;;;0.40;0.40;;;;;;;1.92;100.00;99652.98;105808;1257;60437;-57
2024/03/19 01:07:46;;;;;;;0.50;0.50;;;;;;;1.92;100.00;99648.73;105956;1270;60493;-57
2024/03/19 01:10:13;;;;;;;0.50;0.50;;;;;;;1.91;100.00;99648.94;105979;1256;72562;-57
2024/03/19 01:12:41;;;;;;;0.50;0.40;;;;;;;1.88;100.00;99648.78;105911;1254;67199;-59
2024/03/19 01:15:08;;;;;;;0.50;0.40;;;;;;;1.85;100.00;99647.78;106054;1266;72759;-57
2024/03/19 01:17:36;;;;;;;0.60;0.40;;;;;;;1.83;100.00;99645.33;105935;1260;61319;-57
2024/03/19 01:20:04;;;;;;;0.60;0.40;;;;;;;1.82;100.00;99643.23;105903;1259;60362;-57
2024/03/19 01:22:32;;;;;;;0.60;0.50;;;;;;;1.81;100.00;99647.83;106388;1255;74045;-57
2024/03/19 01:25:00;;;;;;;1.80;0.60;;;;;;;1.82;100.00;99655.95;105727;1261;65725;-58
2024/03/19 01:27:28;;;;;;;0.70;0.70;;;;;;;1.84;100.00;99657.19;105967;1268;72760;-57
2024/03/19 01:29:55;;;;;;;1.20;0.60;;;;;;;1.86;100.00;99653.79;108963;1254;61518;-57
2024/03/19 01:32:22;;;;;;;1.10;0.70;;;;;;;1.87;100.00;99658.00;108890;1254;60036;-58
2024/03/19 01:34:49;;;;;;;0.70;0.60;;;;;;;1.90;100.00;99658.84;109011;1254;74027;-58
2024/03/19 01:37:16;;;;;;;0.70;0.50;;;;;;;1.94;100.00;99664.12;109066;1254;66987;-57
2024/03/19 01:39:43;;;;;;;0.60;0.60;;;;;;;1.97;100.00;99665.64;109005;1253;71542;-58
2024/03/19 01:42:12;;;;;;;0.70;0.70;;;;;;;1.99;100.00;99665.80;109073;1255;58518;-57
2024/03/19 01:44:39;;;;;;;0.80;0.60;;;;;;;2.01;100.00;99662.77;109119;1257;61325;-58
2024/03/19 01:47:07;;;;;;;0.80;0.70;;;;;;;2.01;100.00;99664.00;109163;1253;72778;-58
2024/03/19 01:49:35;;;;;;;0.80;0.70;;;;;;;2.01;100.00;99663.47;108934;1255;69198;-58
2024/03/19 01:52:02;;;;;;;0.60;0.60;;;;;;;2.00;100.00;99666.67;109099;1257;72424;-58
2024/03/19 01:54:30;;;;;;;0.60;0.50;;;;;;;1.99;100.00;99668.63;109051;1254;60232;-58
2024/03/19 01:56:57;;;;;;;0.70;0.50;;;;;;;1.99;100.00;99666.69;107504;1260;60245;-59
2024/03/19 01:59:24;;;;;;;0.70;0.50;;;;;;;1.98;100.00;99663.33;105894;1270;73076;-59
2024/03/19 02:01:52;;;;;;;0.50;0.40;;;;;;;1.98;100.00;99664.23;108926;1254;65775;-59
2024/03/19 02:04:19;;;;;;;0.40;0.40;;;;;;;1.99;100.00;99660.49;109117;1256;74976;-59
2024/03/19 02:06:46;;;;;;;0.40;0.30;;;;;;;1.99;100.00;99660.13;106103;1258;60811;-57
2024/03/19 02:09:13;;;;;;;0.50;0.40;;;;;;;2.01;100.00;99662.94;105971;1277;60437;-57
2024/03/19 02:11:41;;;;;;;0.70;0.40;;;;;;;2.02;100.00;99661.88;106485;1258;76673;-57
2024/03/19 02:14:08;;;;;;;0.40;0.40;;;;;;;2.03;100.00;99664.17;105872;1256;67097;-57
2024/03/19 02:16:36;;;;;;;1.10;0.30;;;;;;;2.05;100.00;99665.34;106630;1260;72798;-58
2024/03/19 02:19:04;;;;;;;0.60;0.50;;;;;;;2.07;100.00;99665.86;105857;1261;60474;-57
2024/03/19 02:21:32;;;;;;;0.70;0.60;;;;;;;2.07;100.00;99667.27;105860;1267;59717;-57
2024/03/19 02:24:01;;;;;;;0.40;0.40;;;;;;;2.06;100.00;99666.73;105821;1261;73800;-56
2024/03/19 02:26:30;;;;;;;1.00;0.60;;;;;;;2.04;100.00;99672.45;106243;1259;67094;-59
2024/03/19 02:28:57;;;;;;;0.60;0.60;;;;;;;2.02;100.00;99673.02;106119;1260;74392;-57
2024/03/19 02:31:27;;;;;;;0.80;0.60;;;;;;;2.01;100.00;99675.51;105818;1260;60554;-57
2024/03/19 02:33:57;;;;;;;0.90;0.50;;;;;;;1.98;100.00;99681.02;106670;1255;60336;-56
2024/03/19 02:36:24;;;;;;;0.50;0.40;;;;;;;1.97;100.00;99682.65;106063;1260;73821;-58
2024/03/19 02:38:51;;;;;;;0.90;0.50;;;;;;;1.96;100.00;99683.55;106061;1267;65966;-57
2024/03/19 02:41:19;;;;;;;0.60;0.50;;;;;;;1.96;100.00;99683.89;105972;1260;73576;-57
2024/03/19 02:43:46;;;;;;;0.70;0.60;;;;;;;1.98;100.00;99689.17;105950;1257;61574;-56
2024/03/19 02:46:13;;;;;;;0.90;0.70;;;;;;;1.96;100.00;99689.91;105965;1254;61295;-57
2024/03/19 02:48:40;;;;;;;1.30;0.70;;;;;;;1.97;100.00;99684.77;105950;1255;74735;-57
2024/03/19 02:51:07;;;;;;;0.90;0.70;;;;;;;1.97;100.00;99687.77;106076;1257;67470;-58
2024/03/19 02:53:34;;;;;;;0.90;0.70;;;;;;;1.96;100.00;99688.33;106015;1266;72898;-59
2024/03/19 02:56:02;;;;;;;1.10;0.60;;;;;;;1.96;100.00;99693.09;106049;1260;61284;-58
2024/03/19 02:58:29;;;;;;;1.10;0.80;;;;;;;1.95;100.00;99692.08;106039;1257;61189;-57
2024/03/19 03:00:56;;;;;;;2.90;0.70;;;;;;;1.94;100.00;99692.26;105948;1254;74693;-59
2024/03/19 03:03:23;;;;;;;1.40;0.90;;;;;;;1.93;100.00;99695.45;106060;1260;67068;-59
2024/03/19 03:05:50;;;;;;;2.20;0.90;;;;;;;1.90;100.00;99705.91;105952;1260;70603;-59
2024/03/19 03:08:18;;;;;;;1.80;0.80;;;;;;;1.86;100.00;99705.99;105858;1255;61166;-58
2024/03/19 03:10:45;;;;;;;0.80;0.70;;;;;;;1.82;100.00;99707.80;105958;1258;60737;-58
2024/03/19 03:13:12;;;;;;;2.00;0.60;;;;;;;1.78;100.00;99709.45;105913;1258;73423;-57
2024/03/19 03:15:39;;;;;;;0.60;0.60;;;;;;;1.76;100.00;99709.66;105909;1260;66395;-58
2024/03/19 03:18:06;;;;;;;0.50;0.50;;;;;;;1.73;100.00;99718.72;105912;1259;71404;-58
2024/03/19 03:20:34;;;;;;;0.50;0.50;;;;;;;1.72;100.00;99712.89;105964;1254;61353;-59
2024/03/19 03:23:01;;;;;;;0.60;0.50;;;;;;;1.70;100.00;99714.52;105994;1257;59987;-59
2024/03/19 03:25:29;;;;;;;2.00;0.40;;;;;;;1.69;100.00;99716.48;105885;1263;75287;-58
2024/03/19 03:27:56;;;;;;;0.60;0.50;;;;;;;1.69;100.00;99721.61;105954;1254;67569;-59
2024/03/19 03:30:23;;;;;;;1.80;0.40;;;;;;;1.72;100.00;99726.68;106074;1258;71428;-58
2024/03/19 03:32:51;;;;;;;0.40;0.30;;;;;;;1.75;100.00;99729.31;105940;1254;61352;-59
2024/03/19 03:35:19;;;;;;;0.60;0.40;;;;;;;1.77;100.00;99734.06;106151;1253;61298;-60
2024/03/19 03:37:46;;;;;;;0.60;0.50;;;;;;;1.79;100.00;99731.02;105891;1260;74655;-58
2024/03/19 03:40:19;;;;;;;1.80;0.40;;;;;;;1.81;100.00;99733.83;105806;1268;65680;-58
2024/03/19 03:42:46;;;;;;;0.60;0.50;;;;;;;1.82;100.00;99738.06;105933;1257;72733;-59
2024/03/19 03:45:26;;;;;;;0.60;0.50;;;;;;;1.80;100.00;99746.58;105881;1270;61336;-59
2024/03/19 03:47:53;;;;;;;1.60;0.50;;;;;;;1.77;100.00;99752.83;105895;1254;61216;-59
2024/03/19 03:50:21;;;;;;;0.50;0.50;;;;;;;1.73;100.00;99749.67;105960;1259;74820;-58
2024/03/19 03:52:48;;;;;;;1.50;0.40;;;;;;;1.71;100.00;99753.05;105930;1259;67080;-59
2024/03/19 03:55:15;;;;;;;2.80;0.30;;;;;;;1.68;100.00;99757.53;105931;1258;71764;-59
2024/03/19 03:57:45;;;;;;;0.30;0.30;;;;;;;1.65;100.00;99757.91;105960;1261;61244;-58
2024/03/19 04:00:13;;;;;;;0.30;0.30;;;;;;;1.65;100.00;99763.58;106197;1254;61219;-58
2024/03/19 04:02:42;;;;;;;0.40;0.40;;;;;;;1.66;100.00;99764.10;106263;1258;76305;-58
2024/03/19 04:05:09;;;;;;;0.20;0.20;;;;;;;1.68;100.00;99773.98;105891;1254;67496;-58
2024/03/19 04:07:39;;;;;;;0.30;0.30;;;;;;;1.68;100.00;99777.18;105842;1263;73284;-59
2024/03/19 04:10:11;;;;;;;0.40;0.30;;;;;;;1.69;100.00;99780.17;106167;1256;62304;-58
2024/03/19 04:12:38;;;;;;;0.30;0.30;;;;;;;1.72;100.00;99785.25;106377;1258;60936;-59
2024/03/19 04:15:06;;;;;;;0.20;0.20;;;;;;;1.73;100.00;99791.78;105911;1254;76759;-58
2024/03/19 04:17:34;;;;;;;0.20;0.20;;;;;;;1.74;100.00;99795.31;105921;1261;65964;-59
2024/03/19 04:20:05;;;;;;;0.30;0.30;;;;;;;1.75;100.00;99799.73;105849;1254;71576;-58
2024/03/19 04:22:33;;;;;;;0.20;0.20;;;;;;;1.77;100.00;99807.84;105885;1271;61171;-59
2024/03/19 04:25:00;;;;;;;0.20;0.20;;;;;;;1.79;100.00;99811.70;109027;1257;59132;-60
2024/03/19 04:27:27;;;;;;;0.30;0.20;;;;;;;1.80;100.00;99812.73;108922;1254;74701;-60
2024/03/19 04:29:54;;;;;;;0.30;0.30;;;;;;;1.81;100.00;99814.86;109005;1254;66483;-60
2024/03/19 04:32:21;;;;;;;0.30;0.20;;;;;;;1.80;100.00;99819.65;109003;1254;71490;-59
2024/03/19 04:34:48;;;;;;;1.50;0.20;;;;;;;1.79;100.00;99823.73;108874;1254;59235;-58
2024/03/19 04:37:16;;;;;;;0.20;0.20;;;;;;;1.78;100.00;99826.93;108950;1254;59768;-60
2024/03/19 04:39:43;;;;;;;0.10;0.10;;;;;;;1.78;100.00;99828.88;108936;1254;75095;-58
2024/03/19 04:42:15;;;;;;;0.20;0.20;;;;;;;1.79;100.00;99834.52;108457;1254;65786;-58
2024/03/19 04:44:42;;;;;;;0.20;0.20;;;;;;;1.79;100.00;99834.70;105762;1260;71768;-57
2024/03/19 04:47:10;;;;;;;0.20;0.20;;;;;;;1.81;100.00;99838.04;105767;1261;62367;-58
2024/03/19 04:49:37;;;;;;;0.10;0.10;;;;;;;1.83;100.00;99843.86;109054;1254;59217;-58
2024/03/19 04:52:05;;;;;;;0.10;0.10;;;;;;;1.87;100.00;99852.30;108907;1254;74657;-58
2024/03/19 04:54:35;;;;;;;0.10;0.10;;;;;;;1.90;100.00;99855.98;109068;1254;66839;-57
2024/03/19 04:57:02;;;;;;;0.10;0.10;;;;;;;1.93;100.00;99859.85;107806;1254;73444;-58
2024/03/19 04:59:30;;;;;;;0.10;0.10;;;;;;;1.95;100.00;99861.78;105944;1259;61309;-58
2024/03/19 05:01:57;;;;;;;0.20;0.10;;;;;;;1.96;100.00;99863.35;105925;1258;61188;-58
2024/03/19 05:04:24;;;;;;;0.10;0.10;;;;;;;1.95;100.00;99864.61;108907;1255;74990;-57
2024/03/19 05:06:52;;;;;;;0.10;0.10;;;;;;;1.96;100.00;99871.86;109022;1255;69191;-57
2024/03/19 05:09:19;;;;;;;0.30;0.20;;;;;;;1.94;100.00;99876.84;109031;1253;72136;-58
2024/03/19 05:11:47;;;;;;;0.20;0.10;;;;;;;1.92;100.00;99880.58;108970;1254;61229;-57
2024/03/19 05:14:14;;;;;;;0.40;0.20;;;;;;;1.89;100.00;99883.06;109006;1254;58920;-58
2024/03/19 05:16:41;;;;;;;0.20;0.20;;;;;;;1.88;100.00;99893.17;106713;1259;74668;-55
2024/03/19 05:19:08;;;;;;;0.20;0.20;;;;;;;1.88;100.00;99895.28;105882;1274;69239;-56
2024/03/19 05:21:35;;;;;;;0.10;0.10;;;;;;;1.89;100.00;99903.77;105908;1264;73672;-56
2024/03/19 05:24:02;;;;;;;0.40;0.10;;;;;;;1.89;100.00;99903.41;105990;1257;61189;-57
2024/03/19 05:26:30;;;;;;;0.20;0.20;;;;;;;1.88;100.00;99909.62;105931;1260;61232;-56
2024/03/19 05:28:57;;;;;;;0.30;0.20;;;;;;;1.90;100.00;99918.10;105943;1258;73676;-58
2024/03/19 05:31:25;;;;;;;0.30;0.20;;;;;;;1.93;100.00;99918.44;105937;1260;65867;-57
2024/03/19 05:33:53;;;;;;;0.20;0.20;;;;;;;1.94;100.00;99924.45;105999;1254;71458;-57
2024/03/19 05:36:21;;;;;;;0.20;0.20;;;;;;;1.96;100.00;99926.00;105903;1259;62005;-57
2024/03/19 05:38:48;;;;;;;0.30;0.20;;;;;;;1.97;100.00;99932.00;105903;1254;61214;-57
2024/03/19 05:41:15;;;;;;;0.10;0.10;;;;;;;1.98;100.00;99933.40;105996;1259;74714;-58
2024/03/19 05:43:46;;;;;;;0.20;0.20;;;;;;;1.96;100.00;99934.30;105981;1260;69014;-58
2024/03/19 05:46:13;;;;;;;0.30;0.20;;;;;;;1.96;100.00;99933.44;106006;1259;71902;-56
2024/03/19 05:48:40;;;;;;;0.20;0.20;;;;;;;1.95;100.00;99938.07;106046;1258;61258;-58
2024/03/19 05:51:08;;;;;;;0.20;0.20;;;;;;;1.94;100.00;99942.85;106040;1257;61475;-57
2024/03/19 05:53:36;;;;;;;0.20;0.20;;;;;;;1.93;100.00;99945.86;105850;1259;73086;-55
2024/03/19 05:56:04;;;;;;;0.20;0.20;;;;;;;1.95;100.00;99947.27;105764;1260;66032;-56
2024/03/19 05:58:32;;;;;;;0.20;0.20;;;;;;;1.97;100.00;99953.07;105908;1258;72629;-56
2024/03/19 06:01:00;;;;;;;0.20;0.20;;;;;;;2.00;100.00;99956.77;105769;1259;61424;-56
2024/03/19 06:03:37;;;;;;;0.20;0.20;;;;;;;2.02;100.00;99953.55;105996;1260;62060;-56
2024/03/19 06:06:10;;;;;;;0.20;0.20;;;;;;;2.04;100.00;99955.30;105761;1270;74904;-58
2024/03/19 06:08:39;;;;;;;0.20;0.20;;;;;;;2.07;100.00;99959.69;105779;1260;65602;-60
2024/03/19 06:11:07;;;;;;;0.30;0.30;;;;;;;2.09;100.00;99963.39;106844;1254;72770;-59
2024/03/19 06:13:34;;;;;;;0.20;0.20;;;;;;;2.11;100.00;99965.67;106020;1254;61360;-58
2024/03/19 06:16:01;;;;;;;0.20;0.20;;;;;;;2.13;100.00;99972.73;105855;1274;61412;-58
2024/03/19 06:18:28;;;;;;;0.30;0.30;;;;;;;2.16;100.00;99981.89;105871;1260;73907;-57
2024/03/19 06:20:59;;;;;;;0.30;0.30;;;;;;;2.20;100.00;99984.86;106011;1257;65479;-59
2024/03/19 06:23:26;;;;;;;0.30;0.30;;;;;;;2.25;100.00;99990.48;105894;1269;71368;-57
2024/03/19 06:25:53;;;;;;;0.20;0.20;;;;;;;2.27;100.00;99999.67;105924;1264;62175;-57
2024/03/19 06:28:20;;;;;;;0.30;0.30;;;;;;;2.30;100.00;100009.20;106164;1256;61278;-57
2024/03/19 06:30:47;;;;;;;0.30;0.30;;;;;;;2.32;100.00;100020.51;105878;1260;74666;-57
2024/03/19 06:33:14;;;;;;;0.20;0.20;;;;;;;2.34;100.00;100027.58;105936;1260;66273;-57
2024/03/19 06:35:41;;;;;;;0.30;0.30;;;;;;;2.36;100.00;100030.73;106018;1254;73151;-54
2024/03/19 06:38:09;;;;;;;0.60;0.30;;;;;;;2.41;100.00;100037.59;106032;1257;61291;-57
2024/03/19 06:40:36;;;;;;;0.40;0.40;;;;;;;2.44;100.00;100044.11;106041;1253;62060;-56
2024/03/19 06:43:03;;;;;;;0.30;0.20;;;;;;;2.46;100.00;100044.80;106017;1258;73966;-57
2024/03/19 06:45:30;;;;;;;0.40;0.40;;;;;;;2.47;100.00;100049.38;106009;1269;65532;-57
2024/03/19 06:47:58;;;;;;;0.40;0.30;;;;;;;2.47;100.00;100050.98;106065;1257;71377;-56
2024/03/19 06:50:26;;;;;;;0.40;0.40;;;;;;;2.48;100.00;100055.93;106010;1253;61312;-57
2024/03/19 06:52:53;;;;;;;0.40;0.40;;;;;;;2.48;100.00;100061.77;105981;1267;61391;-56
2024/03/19 06:55:20;;;;;;;0.40;0.40;;;;;;;2.49;100.00;100066.90;105919;1257;74002;-55
2024/03/19 06:57:48;;;;;;;0.60;0.30;;;;;;;2.49;100.00;100076.47;106363;1253;65805;-55
2024/03/19 07:00:22;;;;;;;0.40;0.40;;;;;;;2.49;100.00;100080.02;105965;1269;75601;-56
2024/03/19 07:02:49;;;;;;;0.30;0.30;;;;;;;2.51;100.00;100086.20;106359;1254;61342;-56
2024/03/19 07:05:16;;;;;;;0.30;0.30;;;;;;;2.54;100.00;100092.91;105942;1253;61240;-56
2024/03/19 07:07:44;;;;;;;0.50;0.40;;;;;;;2.57;100.00;100100.30;105981;1257;74602;-55
2024/03/19 07:10:12;;;;;;;0.90;0.40;;;;;;;2.59;100.00;100103.65;106001;1257;65690;-55
2024/03/19 07:12:39;;;;;;;0.40;0.40;;;;;;;2.61;100.00;100106.29;105996;1254;73194;-55
2024/03/19 07:15:10;;;;;;;0.40;0.40;;;;;;;2.64;100.00;100113.33;105970;1257;61456;-56
2024/03/19 07:17:38;;;;;;;0.30;0.30;;;;;;;2.67;100.00;100110.83;106107;1259;61643;-56
2024/03/19 07:20:09;;;;;;;0.30;0.30;;;;;;;2.70;100.00;100114.88;106244;1267;74716;-55
2024/03/19 07:22:37;;;;;;;0.40;0.40;;;;;;;2.73;100.00;100118.55;106026;1257;65690;-54
2024/03/19 07:25:07;;;;;;;0.50;0.50;;;;;;;2.73;100.00;100124.23;106037;1258;72546;-54
2024/03/19 07:27:40;;;;;;;0.50;0.40;;;;;;;2.71;100.00;100128.52;106102;1254;61038;-56
2024/03/19 07:30:09;;;;;;;0.40;0.40;;;;;;;2.70;100.00;100130.48;106163;1256;61247;-54
2024/03/19 07:32:36;;;;;;;0.40;0.40;;;;;;;2.71;100.00;100130.11;106132;1253;73536;-55
2024/03/19 07:35:04;;;;;;;0.30;0.30;;;;;;;2.73;100.00;100128.46;106188;1257;67150;-55
2024/03/19 07:37:32;;;;;;;0.30;0.30;;;;;;;2.76;100.00;100133.77;109124;1253;75215;-56
2024/03/19 07:39:59;;;;;;;0.40;0.30;;;;;;;2.78;100.00;100135.88;109075;1253;63584;-56
2024/03/19 07:42:27;;;;;;;0.50;0.40;;;;;;;2.80;100.00;100139.04;109085;1252;60554;-55
2024/03/19 07:44:55;;;;;;;0.60;0.50;;;;;;;2.84;100.00;100144.13;109000;1253;73773;-55
2024/03/19 07:47:22;;;;;;;0.50;0.50;;;;;;;2.87;100.00;100146.41;109195;1253;65825;-56
2024/03/19 07:49:50;;;;;;;0.70;0.50;;;;;;;2.90;100.00;100147.60;109102;1253;73113;-56
2024/03/19 07:52:17;;;;;;;0.50;0.50;;;;;;;2.92;100.00;100144.75;109100;1253;58854;-57
2024/03/19 07:54:44;;;;;;;1.00;0.50;;;;;;;2.94;100.00;100144.56;109209;1253;60087;-57
2024/03/19 07:57:11;;;;;;;0.50;0.50;;;;;;;2.97;100.00;100142.04;109065;1253;74789;-56
2024/03/19 07:59:39;;;;;;;0.50;0.50;;;;;;;3.01;100.00;100145.89;106406;1257;65818;-57
2024/03/19 08:02:08;;;;;;;0.50;0.50;;;;;;;3.07;100.00;100147.95;105896;1260;71579;-57
2024/03/19 08:04:35;;;;;;;0.50;0.50;;;;;;;3.16;100.00;100145.02;106003;1259;62155;-57
2024/03/19 08:07:04;;;;;;;0.60;0.50;;;;;;;3.25;100.00;100151.45;105998;1252;62687;-57
2024/03/19 08:09:32;;;;;;;2.00;0.50;;;;;;;3.37;100.00;100156.63;109100;1253;74748;-56
2024/03/19 08:12:05;;;;;;;0.70;0.50;;;;;;;3.50;100.00;100166.21;109218;1253;65531;-56
2024/03/19 08:14:33;;;;;;;0.90;0.50;;;;;;;3.63;100.00;100170.30;109106;1253;72736;-57
2024/03/19 08:17:02;;;;;;;0.80;0.60;;;;;;;3.74;100.00;100179.02;109116;1253;59051;-56
2024/03/19 08:19:29;;;;;;;3.50;0.90;;;;;;;3.84;100.00;100182.96;109237;1253;60372;-57
2024/03/19 08:21:56;;;;;;;0.80;0.70;;;;;;;3.94;100.00;100186.20;109013;1253;73890;-57
2024/03/19 08:24:23;;;;;;;0.60;0.60;;;;;;;4.04;100.00;100189.95;108137;1253;67239;-55
2024/03/19 08:26:51;;;;;;;1.00;0.90;;;;;;;4.13;100.00;100191.04;106033;1254;71415;-56
2024/03/19 08:29:18;;;;;;;2.20;0.70;;;;;;;4.22;100.00;100192.00;105908;1254;62214;-54
2024/03/19 08:31:45;;;;;;;0.60;0.50;;;;;;;4.31;100.00;100192.02;105900;1254;61345;-56
2024/03/19 08:34:13;;;;;;;0.70;0.70;;;;;;;4.41;100.00;100196.48;106016;1259;75508;-55
2024/03/19 08:36:40;;;;;;;0.50;0.50;;;;;;;4.47;100.00;100205.80;106084;1257;65773;-57
2024/03/19 08:39:10;;;;;;;0.50;0.50;;;;;;;4.49;100.00;100205.77;105979;1254;73149;-57
2024/03/19 08:41:38;;;;;;;0.80;0.70;;;;;;;4.49;100.00;100215.19;106590;1257;62003;-56
2024/03/19 08:44:06;;;;;;;0.70;0.50;;;;;;;4.48;100.00;100220.17;106090;1257;61281;-57
2024/03/19 08:46:33;;;;;;;0.90;0.70;;;;;;;4.48;100.00;100223.91;105978;1257;73820;-55
2024/03/19 08:49:00;;;;;;;0.70;0.60;;;;;;;4.48;100.00;100224.80;105953;1257;67029;-55
2024/03/19 08:51:30;;;;;;;0.60;0.60;;;;;;;4.49;100.00;100229.05;106008;1255;71446;-57
2024/03/19 08:53:57;;;;;;;1.30;0.60;;;;;;;4.53;100.00;100234.66;106040;1257;62517;-55
2024/03/19 08:56:25;;;;;;;0.60;0.60;;;;;;;4.56;100.00;100237.83;106339;1254;61378;-57
2024/03/19 08:58:52;;;;;;;0.60;0.50;;;;;;;4.59;100.00;100244.70;106059;1257;73212;-58
2024/03/19 09:01:21;;;;;;;0.50;0.50;;;;;;;4.62;100.00;100252.30;105967;1256;67055;-55
2024/03/19 09:03:48;;;;;;;0.70;0.50;;;;;;;4.65;100.00;100257.41;106107;1259;73966;-56
2024/03/19 09:06:16;;;;;;;0.70;0.60;;;;;;;4.70;100.00;100265.33;105977;1258;61131;-55
2024/03/19 09:08:43;;;;;;;0.50;0.50;;;;;;;4.75;100.00;100270.76;106003;1257;61201;-56
2024/03/19 09:11:11;;;;;;;0.50;0.40;;;;;;;4.80;100.00;100277.42;106000;1256;73800;-58
2024/03/19 09:13:38;;;;;;;1.10;0.60;;;;;;;4.83;100.00;100285.91;105903;1260;64810;-55
2024/03/19 09:16:06;;;;;;;0.50;0.50;;;;;;;4.86;100.00;100286.36;105875;1258;72729;-59
2024/03/19 09:18:33;;;;;;;0.50;0.50;;;;;;;4.88;100.00;100294.89;105792;1254;61331;-59
2024/03/19 09:21:00;;;;;;;0.60;0.60;;;;;;;4.91;100.00;100298.77;105957;1253;62059;-58
2024/03/19 09:23:27;;;;;;;0.60;0.60;;;;;;;4.94;100.00;100296.21;105890;1258;74681;-58
2024/03/19 09:25:55;;;;;;;0.50;0.50;;;;;;;5.01;100.00;100297.16;105958;1257;67037;-57
2024/03/19 09:28:24;;;;;;;0.50;0.50;;;;;;;5.07;100.00;100296.00;106095;1257;72739;-57
2024/03/19 09:30:51;;;;;;;0.50;0.50;;;;;;;5.12;100.00;100291.64;106395;1257;61448;-56
2024/03/19 09:33:19;;;;;;;0.60;0.50;;;;;;;5.17;100.00;100289.95;106069;1257;61117;-56
2024/03/19 09:35:46;;;;;;;0.60;0.60;;;;;;;5.22;100.00;100295.00;105893;1263;73422;-58
2024/03/19 09:38:15;;;;;;;0.70;0.50;;;;;;;5.27;100.00;100298.48;105966;1253;67092;-56
2024/03/19 09:41:03;;;;;;;0.80;0.60;;;;;;;5.32;100.00;100302.66;106135;1257;71767;-56
2024/03/19 09:43:35;;;;;;;0.50;0.50;;;;;;;5.35;100.00;100312.23;105961;1260;62341;-56
2024/03/19 09:46:03;;;;;;;0.70;0.60;;;;;;;5.32;100.00;100312.27;105984;1254;61160;-55
2024/03/19 09:48:30;;;;;;;0.70;0.70;;;;;;;5.30;100.00;100317.10;105959;1253;73708;-56
2024/03/19 09:50:58;;;;;;;0.70;0.50;;;;;;;5.30;100.00;100319.59;105924;1257;65777;-58
2024/03/19 09:53:26;;;;;;;0.60;0.60;;;;;;;5.31;100.00;100325.99;106501;1257;72725;-57
2024/03/19 09:55:53;;;;;;;1.40;0.50;;;;;;;5.31;100.00;100328.65;106010;1254;61360;-56
2024/03/19 09:58:22;;;;;;;0.60;0.60;;;;;;;5.30;100.00;100329.02;106000;1253;62056;-55
2024/03/19 10:00:53;;;;;;;0.50;0.50;;;;;;;5.27;100.00;100332.64;106170;1258;74699;-54
2024/03/19 10:03:20;;;;;;;0.60;0.60;;;;;;;5.26;100.00;100339.80;105959;1257;67669;-54
2024/03/19 10:05:47;;;;;;;0.60;0.60;;;;;;;5.24;100.00;100346.39;105900;1255;72843;-54
2024/03/19 10:08:16;;;;;;;0.60;0.50;;;;;;;5.23;100.00;100345.70;106045;1265;61944;-55
2024/03/19 10:10:47;;;;;;;0.70;0.40;;;;;;;5.21;100.00;100350.89;105992;1253;61250;-58
2024/03/19 10:13:14;;;;;;;0.40;0.40;;;;;;;5.22;100.00;100351.95;105986;1256;73239;-57
2024/03/19 10:15:42;;;;;;;0.60;0.50;;;;;;;5.24;100.00;100350.32;105975;1257;68380;-56
2024/03/19 10:18:10;;;;;;;0.50;0.40;;;;;;;5.31;100.00;100348.23;106139;1254;71544;-57
2024/03/19 10:20:39;;;;;;;0.60;0.50;;;;;;;5.40;100.00;100348.26;106187;1254;61289;-56
2024/03/19 10:23:06;;;;;;;1.10;0.40;;;;;;;5.47;100.00;100349.38;106523;1258;62068;-58
2024/03/19 10:25:36;;;;;;;2.00;0.50;;;;;;;5.51;100.00;100351.98;106064;1256;74683;-58
2024/03/19 10:28:05;;;;;;;0.40;0.40;;;;;;;5.57;100.00;100354.70;106085;1257;65564;-58
2024/03/19 10:30:32;;;;;;;0.40;0.40;;;;;;;5.65;100.00;100358.65;107487;1253;72759;-58
2024/03/19 10:33:01;;;;;;;0.50;0.40;;;;;;;5.74;100.00;100360.98;106069;1267;61195;-57
2024/03/19 10:35:29;;;;;;;0.50;0.40;;;;;;;5.78;100.00;100366.06;106133;1256;62009;-56
2024/03/19 10:37:56;;;;;;;0.60;0.50;;;;;;;5.82;100.00;100372.92;105920;1259;75150;-57
2024/03/19 10:40:25;;;;;;;0.60;0.50;;;;;;;5.86;100.00;100376.06;109150;1252;66010;-58
2024/03/19 10:42:53;;;;;;;0.40;0.40;;;;;;;5.91;100.00;100377.95;109170;1253;72621;-58
2024/03/19 10:45:21;;;;;;;0.50;0.50;;;;;;;5.95;100.00;100379.86;106778;1257;61256;-58
2024/03/19 10:47:49;;;;;;;0.50;0.50;;;;;;;5.98;100.00;100387.45;109153;1253;60478;-57
2024/03/19 10:52:39;;;;;;;0.50;0.40;;;;;;;5.97;100.00;100464.41;102615;1297;600320;-55
2024/03/19 10:55:10;;;;;;;0.90;0.40;;;;;;;5.92;100.00;100487.85;105087;1282;61610;-58
2024/03/19 10:57:37;;;;;;;0.50;0.40;;;;;;;5.90;100.00;100478.27;108239;1267;58931;-57
2024/03/19 11:00:26;;;;;;;0.40;0.40;;;;;;;5.89;100.00;100476.49;108841;1257;71878;-57
2024/03/19 11:02:56;;;;;;;0.30;0.30;;;;;;;5.92;100.00;100476.09;106042;1262;67484;-56
2024/03/19 11:05:24;;;;;;;0.40;0.40;;;;;;;5.96;100.00;100469.27;108755;1256;147406;-57
2024/03/19 11:07:52;;;;;;;0.50;0.50;;;;;;;6.04;100.00;100471.95;106392;1260;60150;-56
2024/03/19 11:10:26;;;;;;;0.60;0.50;;;;;;;6.11;100.00;100470.39;108968;1256;60234;-58
2024/03/19 11:12:58;;;;;;;0.50;0.40;;;;;;;6.15;100.00;100472.10;109025;1257;73980;-59
2024/03/19 11:15:25;;;;;;;0.40;0.40;;;;;;;6.20;100.00;100470.05;107092;1254;66955;-57
2024/03/19 11:17:52;;;;;;;0.40;0.30;;;;;;;6.25;100.00;100464.95;105781;1276;70412;-56
2024/03/19 11:20:19;;;;;;;0.70;0.50;;;;;;;6.31;100.00;100467.88;106015;1259;59910;-55
2024/03/19 11:22:47;;;;;;;0.40;0.30;;;;;;;6.35;100.00;100464.06;106447;1258;60859;-58
2024/03/19 11:25:15;;;;;;;0.40;0.40;;;;;;;6.37;100.00;100465.45;105894;1270;73984;-55
2024/03/19 11:27:50;;;;;;;0.50;0.50;;;;;;;6.38;100.00;100467.91;106177;1254;66170;-54